Time;durP1;ratioP1;P1;durP2;ratioP2;P2;SDS_P1;SDS_P2;PMS_P1;PMS_P2;Temp;Humidity;BMP_temperature;BMP_pressure;BME280_temperature;BME280_humidity;BME280_pressure;Samples;Min_cycle;Max_cycle;Signal;HPM_P1;HPM_P2
2021/10/01 00:00:06;;;;;;;2.57;1.20;;;12.60;99.90;;;;;;5091980;28;20206;-80
2021/10/01 00:02:33;;;;;;;2.03;0.80;;;12.70;99.90;;;;;;5092092;28;20206;-80
2021/10/01 00:05:00;;;;;;;6.63;1.57;;;12.70;99.90;;;;;;5091693;28;20293;-79
2021/10/01 00:07:27;;;;;;;2.37;1.07;;;12.70;99.90;;;;;;5099842;28;20521;-80
2021/10/01 00:09:56;;;;;;;2.37;1.00;;;12.70;99.90;;;;;;5112154;28;20267;-79
2021/10/01 00:12:23;;;;;;;5.33;1.20;;;12.60;99.90;;;;;;5111895;28;20285;-81
2021/10/01 00:14:50;;;;;;;3.47;0.90;;;12.60;99.90;;;;;;5112206;28;20297;-80
2021/10/01 00:17:16;;;;;;;4.97;1.30;;;12.60;99.90;;;;;;5111904;28;20287;-80
2021/10/01 00:19:43;;;;;;;2.03;0.83;;;12.60;99.90;;;;;;5111801;28;20213;-79
2021/10/01 00:22:10;;;;;;;2.97;1.00;;;12.60;99.90;;;;;;5111791;28;20280;-80
2021/10/01 00:24:38;;;;;;;2.23;1.00;;;12.60;99.90;;;;;;5112039;28;20607;-79
2021/10/01 00:27:09;;;;;;;5.87;1.00;;;12.60;99.90;;;;;;5112362;28;20194;-81
2021/10/01 00:29:36;;;;;;;5.73;0.90;;;12.60;99.90;;;;;;5111680;28;20305;-77
2021/10/01 00:32:04;;;;;;;1.27;0.77;;;12.70;99.90;;;;;;5112032;28;20321;-79
2021/10/01 00:34:31;;;;;;;3.17;1.03;;;12.70;99.90;;;;;;5112220;28;20214;-78
2021/10/01 00:36:58;;;;;;;2.20;0.83;;;12.80;99.90;;;;;;5111547;28;20267;-78
2021/10/01 00:39:25;;;;;;;3.77;1.00;;;12.80;99.90;;;;;;5112130;28;20286;-78
2021/10/01 00:41:52;;;;;;;4.17;1.20;;;12.90;99.90;;;;;;5115367;28;20542;-78
2021/10/01 00:44:20;;;;;;;6.47;1.00;;;13.00;99.90;;;;;;5115957;28;20279;-78
2021/10/01 00:46:47;;;;;;;5.70;1.30;;;13.00;99.90;;;;;;5115518;28;20293;-78
2021/10/01 00:49:14;;;;;;;5.67;1.10;;;13.00;99.90;;;;;;5115590;28;20516;-78
2021/10/01 00:51:42;;;;;;;3.07;0.80;;;12.90;99.90;;;;;;5115706;28;20708;-78
2021/10/01 00:54:10;;;;;;;4.73;0.80;;;12.90;99.90;;;;;;5115797;28;20234;-80
2021/10/01 00:56:37;;;;;;;1.83;0.87;;;12.90;99.90;;;;;;5115531;28;20671;-78
2021/10/01 00:59:04;;;;;;;4.03;0.93;;;12.80;99.90;;;;;;5115489;28;20205;-80
2021/10/01 01:01:32;;;;;;;2.57;1.00;;;12.80;99.90;;;;;;5115825;28;20200;-81
2021/10/01 01:04:02;;;;;;;4.07;1.00;;;12.80;99.90;;;;;;5115749;28;20194;-78
2021/10/01 01:06:37;;;;;;;6.87;1.17;;;12.80;99.90;;;;;;5115429;28;20198;-79
2021/10/01 01:09:12;;;;;;;3.93;0.90;;;12.70;99.90;;;;;;5115223;28;20200;-77
2021/10/01 01:11:51;;;;;;;5.40;1.10;;;12.70;99.90;;;;;;5115200;28;20309;-78
2021/10/01 01:14:24;;;;;;;3.57;0.80;;;12.60;99.90;;;;;;5114766;28;20229;-78
2021/10/01 01:16:56;;;;;;;3.93;1.07;;;12.50;99.90;;;;;;5114853;28;20221;-78
2021/10/01 01:19:38;;;;;;;5.83;1.10;;;12.50;99.90;;;;;;5115164;28;20202;-79
2021/10/01 01:22:12;;;;;;;3.33;0.93;;;12.40;99.90;;;;;;5114780;28;20228;-77
2021/10/01 01:24:59;;;;;;;3.03;0.80;;;12.40;99.90;;;;;;5115225;28;20193;-79
2021/10/01 01:27:44;;;;;;;4.67;1.00;;;12.40;99.90;;;;;;5115008;28;20309;-79
2021/10/01 01:30:14;;;;;;;3.43;0.80;;;12.30;99.90;;;;;;5114688;28;20285;-79
2021/10/01 01:32:45;;;;;;;3.13;0.77;;;12.40;99.90;;;;;;5115026;28;20198;-78
2021/10/01 01:35:16;;;;;;;5.17;1.33;;;12.40;99.90;;;;;;5114800;28;20190;-79
2021/10/01 01:37:47;;;;;;;3.23;0.90;;;12.40;99.90;;;;;;5114621;28;20230;-79
2021/10/01 01:40:18;;;;;;;5.33;0.90;;;12.50;99.90;;;;;;5115451;28;20627;-78
2021/10/01 01:42:46;;;;;;;2.07;0.90;;;12.50;99.90;;;;;;5115052;28;20652;-79
2021/10/01 01:45:17;;;;;;;3.87;1.03;;;12.50;99.90;;;;;;5114996;28;20196;-77
2021/10/01 01:47:46;;;;;;;5.60;1.20;;;12.40;99.90;;;;;;5114515;28;20236;-80
2021/10/01 01:50:14;;;;;;;3.27;0.87;;;12.50;99.90;;;;;;5114653;28;20274;-78
2021/10/01 01:52:43;;;;;;;2.00;0.80;;;12.60;99.90;;;;;;5111269;28;20198;-80
2021/10/01 01:55:11;;;;;;;7.13;1.60;;;12.60;99.90;;;;;;5114476;28;20251;-81
2021/10/01 01:57:40;;;;;;;5.00;1.10;;;12.70;99.90;;;;;;5114858;28;20190;-80
2021/10/01 02:00:08;;;;;;;2.87;0.90;;;12.70;99.90;;;;;;5114052;28;20237;-77
2021/10/01 02:02:36;;;;;;;1.67;0.77;;;12.80;99.90;;;;;;5114271;28;20281;-77
2021/10/01 02:05:06;;;;;;;3.47;0.90;;;12.90;99.90;;;;;;5114546;28;20282;-78
2021/10/01 02:07:34;;;;;;;5.10;1.00;;;12.90;99.90;;;;;;5114476;28;20248;-79
2021/10/01 02:10:02;;;;;;;3.73;1.00;;;12.90;99.90;;;;;;5114191;28;20253;-78
2021/10/01 02:12:30;;;;;;;2.70;0.90;;;12.90;99.90;;;;;;5113190;28;20218;-77
2021/10/01 02:15:00;;;;;;;5.60;1.17;;;12.90;99.90;;;;;;5114020;28;20210;-77
2021/10/01 02:17:30;;;;;;;3.10;0.67;;;12.90;99.90;;;;;;5113664;28;20218;-78
2021/10/01 02:20:00;;;;;;;4.00;1.00;;;12.90;99.90;;;;;;5113639;28;20687;-78
2021/10/01 02:22:31;;;;;;;3.37;1.00;;;12.80;99.90;;;;;;5113382;28;20538;-80
2021/10/01 02:24:58;;;;;;;2.43;0.80;;;12.60;99.90;;;;;;5113664;28;20285;-80
2021/10/01 02:27:30;;;;;;;4.10;0.87;;;12.60;99.90;;;;;;5113495;28;20314;-82
2021/10/01 02:30:01;;;;;;;1.70;0.80;;;12.60;99.90;;;;;;5112803;28;20199;-77
2021/10/01 02:32:33;;;;;;;6.77;1.07;;;12.50;99.90;;;;;;5113104;28;20222;-78
2021/10/01 02:35:02;;;;;;;4.10;1.37;;;12.50;99.90;;;;;;5114129;28;20208;-81
2021/10/01 02:37:31;;;;;;;3.03;0.93;;;12.40;99.90;;;;;;5113406;28;20244;-80
2021/10/01 02:39:59;;;;;;;5.90;1.40;;;12.40;99.90;;;;;;5113217;28;20663;-80
2021/10/01 02:42:28;;;;;;;5.00;0.90;;;12.30;99.90;;;;;;5113943;28;20302;-79
2021/10/01 02:44:55;;;;;;;5.83;1.10;;;12.30;99.90;;;;;;5112738;28;20226;-80
2021/10/01 02:47:29;;;;;;;5.87;1.10;;;12.40;99.90;;;;;;5113097;28;20604;-80
2021/10/01 02:49:57;;;;;;;2.20;0.90;;;12.30;99.90;;;;;;5113373;28;20617;-82
2021/10/01 02:52:35;;;;;;;5.07;0.83;;;12.30;99.90;;;;;;5113054;28;20216;-81
2021/10/01 02:55:08;;;;;;;3.23;1.00;;;12.30;99.90;;;;;;5114333;28;20190;-79
2021/10/01 02:57:41;;;;;;;5.30;0.83;;;12.30;99.90;;;;;;5113085;28;20285;-80
2021/10/01 03:00:09;;;;;;;5.07;1.00;;;12.30;99.90;;;;;;5112949;28;20282;-79
2021/10/01 03:02:38;;;;;;;4.40;0.70;;;12.30;99.90;;;;;;5112455;28;20619;-79
2021/10/01 03:05:06;;;;;;;6.27;0.90;;;12.40;99.90;;;;;;5112929;28;20187;-79
2021/10/01 03:07:34;;;;;;;2.53;0.60;;;12.30;99.90;;;;;;5113171;28;20287;-79
2021/10/01 03:10:04;;;;;;;5.07;0.90;;;12.30;99.90;;;;;;5112651;28;20278;-80
2021/10/01 03:12:32;;;;;;;5.00;0.80;;;12.30;99.90;;;;;;5113117;28;20313;-80
2021/10/01 03:15:01;;;;;;;3.33;1.10;;;12.30;99.90;;;;;;5112994;28;20227;-78
2021/10/01 03:17:28;;;;;;;5.20;0.80;;;12.20;99.90;;;;;;5112129;28;20671;-79
2021/10/01 03:19:56;;;;;;;3.37;0.73;;;12.20;99.90;;;;;;5103286;28;20281;-80
2021/10/01 03:22:31;;;;;;;3.77;1.00;;;12.20;99.90;;;;;;5105690;28;20691;-79
2021/10/01 03:24:58;;;;;;;7.70;1.60;;;12.30;99.90;;;;;;5096584;28;20200;-81
2021/10/01 03:27:28;;;;;;;5.27;1.43;;;12.30;99.90;;;;;;5100552;28;20293;-81
2021/10/01 03:29:58;;;;;;;4.27;0.90;;;12.20;99.90;;;;;;5100737;28;20300;-79
2021/10/01 03:32:25;;;;;;;2.57;0.80;;;12.20;99.90;;;;;;5091597;28;20245;-79
2021/10/01 03:34:53;;;;;;;2.83;0.90;;;12.20;99.90;;;;;;5091551;28;20252;-79
2021/10/01 03:37:21;;;;;;;3.37;0.80;;;12.20;99.90;;;;;;5092042;28;20252;-79
2021/10/01 03:39:55;;;;;;;2.80;0.77;;;12.20;99.90;;;;;;5091772;28;20701;-81
2021/10/01 03:42:22;;;;;;;7.03;1.00;;;12.20;99.90;;;;;;5092311;28;20301;-79
2021/10/01 03:44:50;;;;;;;2.40;0.70;;;12.20;99.90;;;;;;5105652;28;20281;-79
2021/10/01 03:47:17;;;;;;;4.60;1.03;;;12.20;99.90;;;;;;5099225;28;20214;-77
2021/10/01 03:49:44;;;;;;;6.53;0.80;;;12.10;99.90;;;;;;5112086;28;20289;-79
2021/10/01 03:52:12;;;;;;;3.13;0.90;;;12.10;99.90;;;;;;5111865;28;20301;-82
2021/10/01 03:54:41;;;;;;;4.00;0.80;;;12.10;99.90;;;;;;5111509;28;20293;-77
2021/10/01 03:57:08;;;;;;;7.77;1.20;;;12.20;99.90;;;;;;5106580;28;20255;-79
2021/10/01 03:59:35;;;;;;;1.80;0.73;;;12.20;99.90;;;;;;5109189;28;20198;-78
2021/10/01 04:02:03;;;;;;;4.67;1.10;;;12.10;99.90;;;;;;5107367;28;20415;-78
2021/10/01 04:04:30;;;;;;;3.70;0.70;;;12.20;99.90;;;;;;5109063;28;20291;-78
2021/10/01 04:06:57;;;;;;;5.50;1.00;;;12.20;99.90;;;;;;5108785;28;20237;-78
2021/10/01 04:09:24;;;;;;;4.17;0.80;;;12.10;99.90;;;;;;5109240;28;20277;-79
2021/10/01 04:11:53;;;;;;;3.90;1.00;;;12.20;99.90;;;;;;5110140;28;20226;-80
2021/10/01 04:14:21;;;;;;;1.37;0.70;;;12.20;99.90;;;;;;5109454;28;20201;-77
2021/10/01 04:16:48;;;;;;;4.93;1.10;;;12.10;99.90;;;;;;5116263;28;20202;-78
2021/10/01 04:19:17;;;;;;;4.33;0.80;;;12.10;99.90;;;;;;5115545;28;20284;-80
2021/10/01 04:21:45;;;;;;;2.40;0.97;;;12.10;99.90;;;;;;5110000;28;20542;-83
2021/10/01 04:24:12;;;;;;;3.27;0.70;;;12.10;99.90;;;;;;5106685;28;20227;-83
2021/10/01 04:26:39;;;;;;;2.63;0.90;;;12.10;99.90;;;;;;5110153;28;20228;-85
2021/10/01 04:29:06;;;;;;;3.70;1.23;;;12.10;99.90;;;;;;5112560;28;20212;-84
2021/10/01 04:31:33;;;;;;;3.37;0.90;;;12.10;99.90;;;;;;5112091;28;20306;-84
2021/10/01 04:34:00;;;;;;;3.37;0.80;;;12.10;99.90;;;;;;5114236;28;20697;-84
2021/10/01 04:36:32;;;;;;;4.90;1.20;;;12.10;99.90;;;;;;5111591;28;20206;-84
2021/10/01 04:38:58;;;;;;;4.83;0.90;;;12.00;99.90;;;;;;5108881;28;20600;-84
2021/10/01 04:41:25;;;;;;;2.23;0.70;;;12.10;99.90;;;;;;5111393;28;20209;-90
2021/10/01 04:43:52;;;;;;;5.07;0.90;;;12.10;99.90;;;;;;5096056;28;20198;-84
2021/10/01 04:46:20;;;;;;;3.40;0.90;;;12.10;99.90;;;;;;5109482;28;20241;-86
2021/10/01 04:48:49;;;;;;;4.07;1.10;;;12.00;99.90;;;;;;5109752;28;20209;-83
2021/10/01 04:51:16;;;;;;;7.80;0.90;;;12.00;99.90;;;;;;5109955;28;20198;-84
2021/10/01 04:53:44;;;;;;;3.77;1.03;;;11.90;99.90;;;;;;5103763;28;20202;-83
2021/10/01 04:56:11;;;;;;;1.53;0.70;;;12.00;99.90;;;;;;5116185;28;20201;-84
2021/10/01 04:58:38;;;;;;;2.40;0.93;;;12.00;99.90;;;;;;5111418;28;20233;-84
2021/10/01 05:01:05;;;;;;;3.77;1.10;;;12.00;99.90;;;;;;5098977;28;20229;-84
2021/10/01 05:03:32;;;;;;;5.17;1.13;;;12.00;99.90;;;;;;5114723;28;20629;-86
2021/10/01 05:05:59;;;;;;;3.60;0.90;;;12.00;99.90;;;;;;5118245;28;20644;-82
2021/10/01 05:08:26;;;;;;;5.33;1.00;;;12.00;99.90;;;;;;5114833;28;20198;-85
2021/10/01 05:10:55;;;;;;;4.63;0.87;;;12.00;99.90;;;;;;5116661;28;20276;-83
2021/10/01 05:13:23;;;;;;;2.17;0.77;;;12.00;99.90;;;;;;5119808;28;20305;-84
2021/10/01 05:15:50;;;;;;;2.77;0.93;;;12.10;99.90;;;;;;5102292;28;20203;-83
2021/10/01 05:18:18;;;;;;;4.93;1.10;;;12.10;99.90;;;;;;5116342;28;20197;-81
2021/10/01 05:20:45;;;;;;;3.13;1.03;;;12.20;99.90;;;;;;5136265;28;20212;-81
2021/10/01 05:23:12;;;;;;;5.10;0.90;;;12.20;99.90;;;;;;5137241;28;20210;-80
2021/10/01 05:25:39;;;;;;;4.83;1.10;;;12.20;99.90;;;;;;5134875;28;20185;-81
2021/10/01 05:28:07;;;;;;;3.10;0.97;;;12.30;99.90;;;;;;5117233;28;20209;-81
2021/10/01 05:30:34;;;;;;;5.03;0.90;;;12.40;99.90;;;;;;5135091;28;20263;-82
2021/10/01 05:33:05;;;;;;;4.03;0.80;;;12.40;99.90;;;;;;5125109;28;20210;-81
2021/10/01 05:35:34;;;;;;;3.33;0.83;;;12.50;99.90;;;;;;5112315;28;20316;-82
2021/10/01 05:38:01;;;;;;;6.23;1.00;;;12.60;99.90;;;;;;5097170;28;20233;-81
2021/10/01 05:40:31;;;;;;;4.53;0.90;;;12.60;99.90;;;;;;5098105;28;20694;-83
2021/10/01 05:42:58;;;;;;;6.20;1.43;;;12.80;99.90;;;;;;5099324;28;20241;-85
2021/10/01 05:45:26;;;;;;;5.47;1.10;;;12.70;99.90;;;;;;5098674;28;20201;-81
2021/10/01 05:47:53;;;;;;;2.20;0.80;;;12.80;99.90;;;;;;5096908;28;20206;-82
2021/10/01 05:50:22;;;;;;;3.50;1.03;;;12.80;99.90;;;;;;5100144;28;20292;-84
2021/10/01 05:52:58;;;;;;;3.37;0.70;;;12.70;99.90;;;;;;5100419;28;20238;-87
2021/10/01 05:55:25;;;;;;;5.93;1.00;;;12.80;99.90;;;;;;5108157;28;20255;-86
2021/10/01 05:58:18;;;;;;;2.73;0.90;;;12.80;99.90;;;;;;5108122;28;20235;-88
2021/10/01 06:00:47;;;;;;;4.03;1.30;;;12.80;99.90;;;;;;5097188;28;20222;-86
2021/10/01 06:03:21;;;;;;;3.37;0.87;;;12.90;99.90;;;;;;5108414;28;20361;-86
2021/10/01 06:05:51;;;;;;;4.50;0.90;;;12.90;99.90;;;;;;5114891;28;20333;-84
2021/10/01 06:08:19;;;;;;;2.47;0.87;;;12.90;99.90;;;;;;5101347;28;20210;-85
2021/10/01 06:10:47;;;;;;;3.90;1.10;;;13.00;99.90;;;;;;5097453;28;20197;-85
2021/10/01 06:13:14;;;;;;;10.07;1.07;;;13.00;99.90;;;;;;5089654;28;20254;-86
2021/10/01 06:15:41;;;;;;;4.27;0.73;;;13.10;99.90;;;;;;5092923;28;20199;-83
2021/10/01 06:18:09;;;;;;;4.20;1.00;;;13.10;99.90;;;;;;5093825;28;20213;-84
2021/10/01 06:20:37;;;;;;;3.63;1.00;;;13.10;99.90;;;;;;5094372;28;20203;-85
2021/10/01 06:23:06;;;;;;;4.33;0.80;;;13.20;99.90;;;;;;5093090;28;20233;-86
2021/10/01 06:25:33;;;;;;;2.73;0.87;;;13.20;99.90;;;;;;5093532;28;20208;-85
2021/10/01 06:28:00;;;;;;;2.10;0.90;;;13.30;99.90;;;;;;5093333;28;20528;-83
2021/10/01 06:30:27;;;;;;;12.00;1.30;;;13.30;99.90;;;;;;5095849;28;20623;-84
2021/10/01 06:32:57;;;;;;;6.53;0.93;;;13.40;99.90;;;;;;5092542;28;20298;-82
2021/10/01 06:35:25;;;;;;;4.33;1.17;;;13.40;99.90;;;;;;5093112;28;20195;-82
2021/10/01 06:37:56;;;;;;;3.30;0.90;;;13.40;99.90;;;;;;5093674;28;20210;-84
2021/10/01 06:40:23;;;;;;;6.53;0.87;;;13.40;99.90;;;;;;5093268;28;20199;-84
2021/10/01 06:42:54;;;;;;;7.23;0.87;;;13.30;99.90;;;;;;5095962;28;20621;-83
2021/10/01 06:45:24;;;;;;;6.03;1.03;;;13.30;99.90;;;;;;5096635;28;20616;-83
2021/10/01 06:47:56;;;;;;;6.10;1.10;;;13.30;99.90;;;;;;5113532;28;20194;-84
2021/10/01 08:19:39;;;;;;;6.43;1.03;;;16.90;99.90;;;;;;5069044;28;20337;-78
2021/10/01 08:22:06;;;;;;;4.97;1.10;;;17.00;99.90;;;;;;5068780;28;20202;-79
2021/10/01 08:24:34;;;;;;;8.63;1.20;;;17.00;99.90;;;;;;5068949;28;20611;-78
2021/10/01 08:27:03;;;;;;;5.13;1.30;;;17.10;99.90;;;;;;5071028;28;20204;-78
2021/10/01 08:29:31;;;;;;;5.23;1.00;;;17.00;99.90;;;;;;5088826;28;20290;-78
2021/10/01 08:32:00;;;;;;;4.07;0.90;;;16.90;99.90;;;;;;5089161;28;20230;-78
2021/10/01 08:34:28;;;;;;;8.10;1.20;;;16.90;99.90;;;;;;5077057;28;20230;-78
2021/10/01 08:36:55;;;;;;;3.83;1.10;;;17.00;99.90;;;;;;5095443;28;20197;-78
2021/10/01 08:39:22;;;;;;;12.27;1.20;;;16.90;99.90;;;;;;5094046;28;20187;-78
2021/10/01 08:41:51;;;;;;;4.70;1.10;;;17.00;99.90;;;;;;5095450;28;20597;-78
2021/10/01 08:44:18;;;;;;;10.47;1.57;;;17.00;99.90;;;;;;5084457;28;20678;-78
2021/10/01 08:46:47;;;;;;;3.43;1.03;;;17.20;99.90;;;;;;5085463;28;20192;-78
2021/10/01 08:49:15;;;;;;;3.73;1.50;;;17.20;99.90;;;;;;5085026;28;20201;-78
2021/10/01 08:51:42;;;;;;;4.07;1.40;;;17.40;99.90;;;;;;5086965;28;20245;-75
2021/10/01 08:54:09;;;;;;;4.80;1.17;;;17.70;99.90;;;;;;5078152;28;20198;-79
2021/10/01 08:56:37;;;;;;;3.20;1.20;;;17.80;99.90;;;;;;5091967;28;20298;-78
2021/10/01 08:59:05;;;;;;;6.63;1.70;;;17.90;99.90;;;;;;5087924;28;20663;-78
2021/10/01 09:01:32;;;;;;;7.83;1.30;;;17.80;99.90;;;;;;5083057;28;20282;-79
2021/10/01 09:03:59;;;;;;;5.53;1.03;;;17.70;99.90;;;;;;5070161;28;20226;-79
2021/10/01 09:06:26;;;;;;;4.37;1.10;;;17.70;99.90;;;;;;5064454;28;20192;-78
2021/10/01 09:08:55;;;;;;;3.90;1.10;;;17.70;99.90;;;;;;5074482;28;20192;-79
2021/10/01 09:11:27;;;;;;;7.13;1.43;;;17.50;99.90;;;;;;5073105;28;20226;-78
2021/10/01 09:13:54;;;;;;;6.37;1.33;;;17.50;99.90;;;;;;5073712;28;20648;-78
2021/10/01 09:16:23;;;;;;;4.23;0.87;;;17.60;99.90;;;;;;5074415;28;20202;-77
2021/10/01 09:18:50;;;;;;;4.53;1.37;;;17.40;99.90;;;;;;5074472;28;20231;-78
2021/10/01 09:21:19;;;;;;;4.37;1.10;;;17.40;99.90;;;;;;5077363;28;20187;-78
2021/10/01 09:23:59;;;;;;;3.83;1.00;;;17.20;99.90;;;;;;5062045;28;20211;-78
2021/10/01 09:26:27;;;;;;;4.93;1.63;;;17.10;99.90;;;;;;5054183;28;20257;-79
2021/10/01 09:28:55;;;;;;;3.80;1.20;;;17.10;99.90;;;;;;5054439;28;20235;-78
2021/10/01 09:31:37;;;;;;;6.20;1.37;;;17.10;99.90;;;;;;5058433;28;20215;-78
2021/10/01 09:34:06;;;;;;;7.43;1.20;;;17.00;99.90;;;;;;5074338;28;20287;-78
2021/10/01 09:36:34;;;;;;;3.37;0.97;;;17.00;99.90;;;;;;5061700;28;20196;-78
2021/10/01 09:39:01;;;;;;;6.43;1.17;;;17.10;99.90;;;;;;5059135;28;20191;-77
2021/10/01 09:41:30;;;;;;;4.97;1.63;;;17.10;99.90;;;;;;5058817;28;20204;-78
2021/10/01 09:44:03;;;;;;;5.80;1.30;;;17.10;99.90;;;;;;5053881;28;20559;-78
2021/10/01 09:46:45;;;;;;;4.13;1.07;;;17.10;99.90;;;;;;5055013;28;20192;-79
2021/10/01 09:49:14;;;;;;;5.07;1.10;;;17.10;99.90;;;;;;5058942;28;20279;-78
2021/10/01 09:51:49;;;;;;;3.73;1.30;;;17.20;99.90;;;;;;5067511;28;20237;-78
2021/10/01 09:54:16;;;;;;;7.40;1.20;;;17.30;99.90;;;;;;5066586;28;20253;-77
2021/10/01 09:56:45;;;;;;;10.60;1.77;;;17.60;99.90;;;;;;5066617;28;20633;-78
2021/10/01 09:59:15;;;;;;;4.73;1.00;;;17.80;99.90;;;;;;5073947;28;20200;-78
2021/10/01 10:02:14;;;;;;;5.43;1.57;;;18.00;99.90;;;;;;5053545;28;20227;-78
2021/10/01 10:04:44;;;;;;;3.57;1.30;;;18.40;99.90;;;;;;4985549;28;20211;-77
2021/10/01 10:07:17;;;;;;;7.60;1.53;;;18.60;99.90;;;;;;5043605;28;20461;-78
2021/10/01 10:09:46;;;;;;;5.97;1.40;;;18.80;99.90;;;;;;5073905;28;20195;-78
2021/10/01 10:12:17;;;;;;;4.23;1.30;;;18.90;99.90;;;;;;5067565;28;20214;-76
2021/10/01 10:14:50;;;;;;;7.87;1.60;;;19.00;99.90;;;;;;5059702;28;20192;-75
2021/10/01 10:17:20;;;;;;;7.70;1.20;;;19.10;99.90;;;;;;5068904;28;20280;-78
2021/10/01 10:19:47;;;;;;;7.57;1.10;;;19.10;99.90;;;;;;5077970;28;20290;-78
2021/10/01 10:22:14;;;;;;;3.13;1.00;;;19.10;99.90;;;;;;5070951;28;20678;-76
2021/10/01 10:24:42;;;;;;;6.27;1.27;;;19.00;99.90;;;;;;5069416;28;20222;-78
2021/10/01 10:27:09;;;;;;;8.37;1.40;;;18.90;99.90;;;;;;5069578;28;20206;-78
2021/10/01 10:29:39;;;;;;;7.33;1.37;;;18.80;99.90;;;;;;5068419;28;20206;-78
2021/10/01 10:32:09;;;;;;;9.63;1.60;;;18.70;99.90;;;;;;5074030;28;20226;-78
2021/10/01 10:34:49;;;;;;;5.63;1.10;;;18.80;99.90;;;;;;5073666;28;20207;-78
2021/10/01 10:37:16;;;;;;;6.63;1.30;;;18.90;99.90;;;;;;5070765;28;20723;-77
2021/10/01 10:39:46;;;;;;;7.07;1.60;;;19.10;99.90;;;;;;5071568;28;20291;-78
2021/10/01 10:42:22;;;;;;;2.87;0.90;;;19.00;99.90;;;;;;5072598;28;20282;-77
2021/10/01 10:44:55;;;;;;;4.50;1.07;;;19.00;99.90;;;;;;5072108;28;20195;-78
2021/10/01 10:47:56;;;;;;;6.97;0.97;;;18.70;99.90;;;;;;5069053;28;20214;-77
2021/10/01 10:50:46;;;;;;;8.57;1.63;;;18.70;99.90;;;;;;5072323;28;20761;-77
2021/10/01 10:53:17;;;;;;;6.60;1.57;;;18.60;99.90;;;;;;5069410;28;20194;-78
2021/10/01 10:55:56;;;;;;;3.30;1.30;;;18.80;99.90;;;;;;5058541;28;20203;-77
2021/10/01 10:58:49;;;;;;;3.57;1.23;;;18.80;99.90;;;;;;5069888;28;20278;-78
2021/10/01 11:01:39;;;;;;;8.87;1.40;;;18.90;99.90;;;;;;5061004;28;20219;-77
2021/10/01 11:04:40;;;;;;;5.60;1.30;;;18.90;99.90;;;;;;5063517;28;20301;-77
2021/10/01 11:07:10;;;;;;;4.63;1.07;;;19.00;99.90;;;;;;5055204;28;20318;-77
2021/10/01 11:09:39;;;;;;;6.63;1.37;;;18.90;99.90;;;;;;5068607;28;20299;-77
2021/10/01 11:12:28;;;;;;;3.87;1.03;;;18.80;99.90;;;;;;5064597;28;20230;-77
2021/10/01 11:15:18;;;;;;;5.73;1.17;;;18.80;99.90;;;;;;5057967;28;20223;-77
2021/10/01 11:18:18;;;;;;;3.23;1.30;;;18.70;99.90;;;;;;5067127;28;20203;-78
2021/10/01 11:20:45;;;;;;;3.23;1.17;;;18.60;99.90;;;;;;5053146;28;20246;-77
2021/10/01 11:23:19;;;;;;;8.33;1.43;;;18.60;99.90;;;;;;5063730;28;20379;-78
2021/10/01 11:25:47;;;;;;;5.13;1.20;;;18.60;99.90;;;;;;5059793;28;20227;-77
2021/10/01 11:28:15;;;;;;;4.90;1.53;;;18.50;99.90;;;;;;5060417;28;20714;-77
2021/10/01 11:30:47;;;;;;;4.83;1.40;;;18.40;99.90;;;;;;5060629;28;20219;-77
2021/10/01 11:33:14;;;;;;;6.57;1.33;;;18.40;99.90;;;;;;5057854;28;20245;-77
2021/10/01 11:35:54;;;;;;;8.80;1.33;;;18.50;99.90;;;;;;5062597;28;20203;-78
2021/10/01 11:38:25;;;;;;;4.10;1.33;;;18.30;99.90;;;;;;5067366;28;20245;-78
2021/10/01 11:41:09;;;;;;;5.77;1.40;;;18.40;99.90;;;;;;5062485;28;20291;-78
2021/10/01 11:43:52;;;;;;;3.80;1.63;;;18.50;99.90;;;;;;5055488;28;20195;-78
2021/10/01 11:46:27;;;;;;;3.97;1.40;;;18.60;99.90;;;;;;5072604;28;20587;-78
2021/10/01 11:48:55;;;;;;;7.00;1.77;;;18.80;99.90;;;;;;5071937;28;20285;-79
2021/10/01 11:51:21;;;;;;;6.87;1.90;;;18.90;99.90;;;;;;5072233;28;20280;-78
2021/10/01 11:54:05;;;;;;;4.97;1.70;;;19.00;99.90;;;;;;5068252;28;20210;-78
2021/10/01 11:56:31;;;;;;;5.63;1.80;;;19.10;99.90;;;;;;5052329;28;20298;-78
2021/10/01 11:58:58;;;;;;;4.20;1.60;;;18.90;99.90;;;;;;5066864;28;20200;-77
2021/10/01 12:01:25;;;;;;;8.73;1.63;;;18.90;99.90;;;;;;5072285;28;20234;-78
2021/10/01 12:03:53;;;;;;;10.37;1.67;;;18.90;99.90;;;;;;5063974;28;20571;-78
2021/10/01 12:06:21;;;;;;;5.67;2.07;;;18.90;99.90;;;;;;5051733;28;20636;-77
2021/10/01 12:08:58;;;;;;;3.77;1.63;;;18.70;99.90;;;;;;5065883;28;20205;-78
2021/10/01 12:11:27;;;;;;;5.73;1.27;;;18.90;99.90;;;;;;5068965;28;20227;-78
2021/10/01 12:13:54;;;;;;;6.70;1.43;;;18.80;99.90;;;;;;5070352;28;20199;-77
2021/10/01 12:16:22;;;;;;;3.73;1.37;;;18.70;99.90;;;;;;5070869;28;20283;-77
2021/10/01 12:18:54;;;;;;;3.13;1.27;;;18.70;99.90;;;;;;5071247;28;20199;-77
2021/10/01 12:21:24;;;;;;;3.43;1.40;;;18.70;99.90;;;;;;5071863;28;20249;-79
2021/10/01 12:23:55;;;;;;;4.93;1.23;;;18.80;99.90;;;;;;5055609;28;20287;-78
2021/10/01 12:26:29;;;;;;;6.90;1.33;;;18.90;99.90;;;;;;5059696;28;20231;-78
2021/10/01 12:29:11;;;;;;;8.27;1.20;;;19.10;99.90;;;;;;5066424;28;20638;-78
2021/10/01 12:31:45;;;;;;;6.13;1.30;;;19.20;99.90;;;;;;5071159;28;20231;-78
2021/10/01 12:34:20;;;;;;;3.77;1.20;;;19.00;99.90;;;;;;5070538;28;20544;-78
2021/10/01 12:36:51;;;;;;;4.90;1.20;;;19.00;99.90;;;;;;5063647;28;20290;-78
2021/10/01 12:39:19;;;;;;;5.57;1.53;;;19.30;99.90;;;;;;5071790;28;20231;-78
2021/10/01 12:41:55;;;;;;;4.37;1.10;;;19.30;99.90;;;;;;5064503;28;20205;-78
2021/10/01 12:44:22;;;;;;;4.43;1.20;;;19.00;99.90;;;;;;5074320;28;20286;-77
2021/10/01 12:46:52;;;;;;;3.57;1.17;;;18.60;99.90;;;;;;5073480;28;20199;-78
2021/10/01 12:49:22;;;;;;;5.63;1.43;;;17.90;99.90;;;;;;5069542;28;20294;-77
2021/10/01 12:52:13;;;;;;;10.17;2.00;;;17.40;99.90;;;;;;5071595;28;20726;-78
2021/10/01 12:54:46;;;;;;;8.47;1.53;;;16.90;99.90;;;;;;5070589;28;20334;-78
2021/10/01 12:57:24;;;;;;;4.70;1.20;;;16.70;99.90;;;;;;5070490;28;20200;-78
2021/10/01 12:59:53;;;;;;;9.37;1.27;;;16.60;99.90;;;;;;5064567;28;20287;-78
2021/10/01 13:02:22;;;;;;;7.63;1.50;;;16.50;99.90;;;;;;5064658;28;20227;-78
2021/10/01 13:04:55;;;;;;;7.73;1.50;;;16.40;99.90;;;;;;5066016;28;20205;-78
2021/10/01 13:07:36;;;;;;;5.87;1.20;;;16.30;99.90;;;;;;5066561;28;20283;-77
2021/10/01 13:10:21;;;;;;;5.90;1.20;;;16.20;99.90;;;;;;5062211;28;20290;-77
2021/10/01 13:12:52;;;;;;;7.53;1.30;;;16.40;99.90;;;;;;5056902;28;20224;-78
2021/10/01 13:15:31;;;;;;;3.73;1.10;;;16.50;99.90;;;;;;5054691;28;20288;-78
2021/10/01 13:18:13;;;;;;;4.37;1.27;;;16.70;99.90;;;;;;5055092;28;20283;-77
2021/10/01 13:20:42;;;;;;;3.83;1.20;;;17.00;99.90;;;;;;5060398;28;20207;-78
2021/10/01 13:23:11;;;;;;;5.53;1.10;;;17.30;99.90;;;;;;5063816;28;20208;-78
2021/10/01 13:25:43;;;;;;;7.97;1.70;;;17.50;99.90;;;;;;5057985;28;20220;-78
2021/10/01 13:28:11;;;;;;;4.30;1.00;;;17.60;99.90;;;;;;5062488;28;20198;-78
2021/10/01 13:30:38;;;;;;;4.13;1.50;;;17.80;99.90;;;;;;5059685;28;20607;-77
2021/10/01 13:33:06;;;;;;;2.80;1.20;;;18.00;99.90;;;;;;5056148;28;20259;-78
2021/10/01 13:35:33;;;;;;;4.13;1.67;;;18.10;99.90;;;;;;5058378;28;20208;-78
2021/10/01 13:38:00;;;;;;;5.07;1.30;;;18.20;99.90;;;;;;5061311;28;20262;-78
2021/10/01 13:40:27;;;;;;;4.60;1.07;;;18.60;99.90;;;;;;5067732;28;20195;-78
2021/10/01 13:42:54;;;;;;;4.53;1.00;;;18.80;99.90;;;;;;5056499;28;20204;-78
2021/10/01 13:45:23;;;;;;;3.80;1.33;;;18.80;99.90;;;;;;5062772;28;20206;-79
2021/10/01 13:47:50;;;;;;;4.73;1.30;;;18.80;99.90;;;;;;5059776;28;20206;-79
2021/10/01 13:50:17;;;;;;;5.43;0.93;;;18.50;99.90;;;;;;5063008;28;20286;-79
2021/10/01 13:52:44;;;;;;;8.13;1.40;;;18.50;99.90;;;;;;5062240;28;20233;-79
2021/10/01 13:55:13;;;;;;;2.97;1.10;;;18.40;99.90;;;;;;5064436;28;20203;-79
2021/10/01 13:57:41;;;;;;;2.97;0.90;;;18.30;99.90;;;;;;5070308;28;20204;-78
2021/10/01 14:00:12;;;;;;;4.30;1.30;;;18.30;99.90;;;;;;5066196;28;20629;-78
2021/10/01 14:02:42;;;;;;;3.03;1.40;;;18.10;99.90;;;;;;5063013;28;20290;-78
2021/10/01 14:05:12;;;;;;;6.40;1.10;;;18.00;99.90;;;;;;5060292;28;20200;-78
2021/10/01 14:07:39;;;;;;;4.80;1.10;;;18.00;99.90;;;;;;5057789;28;20298;-78
2021/10/01 14:10:09;;;;;;;4.30;1.10;;;17.80;99.90;;;;;;5060681;28;20295;-78
2021/10/01 14:12:36;;;;;;;7.83;1.47;;;17.70;99.90;;;;;;5073562;28;20276;-78
2021/10/01 14:15:04;;;;;;;7.23;1.57;;;17.70;99.90;;;;;;5061229;28;20299;-78
2021/10/01 14:17:31;;;;;;;4.30;1.17;;;17.80;99.90;;;;;;5066962;28;20207;-79
2021/10/01 14:19:59;;;;;;;4.30;1.10;;;17.90;99.90;;;;;;5060732;28;20203;-79
2021/10/01 14:22:26;;;;;;;6.70;1.17;;;18.00;99.90;;;;;;5066065;28;20632;-78
2021/10/01 14:24:53;;;;;;;6.60;1.40;;;18.10;99.90;;;;;;5057278;28;20208;-78
2021/10/01 14:27:20;;;;;;;7.67;1.20;;;18.20;99.90;;;;;;5056483;28;20234;-78
2021/10/01 14:29:47;;;;;;;7.87;1.37;;;18.20;99.90;;;;;;5068471;28;20281;-77